Terminal Aerodrome Forecast
Issued by NWS Mt. Holly, NJ

Home | Current Version | Previous Version | Text Only | Print | Product List | Glossary On
Versions: 1 2 3 4 5 6 7 8 9 10 11 12 13 14 15 16 17 18 19 20 21 22 23 24 25 26
510
FTUS41 KPHI 222328
TAFPHL
TAF
KPHL 222328Z 2300/2406 21012G20KT P6SM SCT040
     FM230200 21010G18KT P6SM BKN040
      TEMPO 2302/2304 3SM TSRA BR OVC020CB
     FM230400 24008KT P6SM -SHRA SCT020 OVC040
     FM230700 25006KT P6SM BKN040
     FM231100 32008KT P6SM BKN050
     FM231700 32008KT P6SM SCT050
     FM240000 29006KT P6SM SKC=

USA.gov is the U.S. government's official web portal to all federal, state and local government web resources and services.